Terminal Aerodrome Forecast
Issued by NWS Sioux Falls, SD

Home | Current Version | Previous Version | Graphics & Text | Print | Product List | Glossary On
Versions: 1 2 3 4 5 6 7 8 9 10 11 12 13 14 15 16 17
489
FTUS43 KFSD 272324
TAFHON
TAF
KHON 272324Z 2800/2824 35008KT P6SM SKC
     FM280400 02006KT P6SM SKC
     FM281200 32004KT P6SM FEW250
     FM281700 01010KT P6SM SKC=

USA.gov is the U.S. government's official web portal to all federal, state and local government web resources and services.